sensor_id;sensor_type;location;lat;lon;timestamp;temperature;humidity
9810;DHT22;4944;52.514;13.192;2024-03-02T00:01:32;8.40;99.90
9810;DHT22;4944;52.514;13.192;2024-03-02T00:04:00;8.40;99.90
9810;DHT22;4944;52.514;13.192;2024-03-02T00:06:29;8.40;99.90
9810;DHT22;4944;52.514;13.192;2024-03-02T00:08:58;8.40;99.90
9810;DHT22;4944;52.514;13.192;2024-03-02T00:11:24;8.40;99.90
9810;DHT22;4944;52.514;13.192;2024-03-02T00:13:53;8.40;99.90
9810;DHT22;4944;52.514;13.192;2024-03-02T00:16:20;8.40;99.90
9810;DHT22;4944;52.514;13.192;2024-03-02T00:18:47;8.40;99.90
9810;DHT22;4944;52.514;13.192;2024-03-02T00:21:16;8.40;99.90
9810;DHT22;4944;52.514;13.192;2024-03-02T00:23:45;8.40;99.90
9810;DHT22;4944;52.514;13.192;2024-03-02T00:26:12;8.40;99.90
9810;DHT22;4944;52.514;13.192;2024-03-02T00:28:40;8.40;99.90
9810;DHT22;4944;52.514;13.192;2024-03-02T00:31:09;8.40;99.90
9810;DHT22;4944;52.514;13.192;2024-03-02T00:33:41;8.40;99.90
9810;DHT22;4944;52.514;13.192;2024-03-02T00:36:08;8.40;99.90
9810;DHT22;4944;52.514;13.192;2024-03-02T00:38:44;8.50;99.90
9810;DHT22;4944;52.514;13.192;2024-03-02T00:41:17;8.50;99.90
9810;DHT22;4944;52.514;13.192;2024-03-02T00:43:47;8.40;99.90
9810;DHT22;4944;52.514;13.192;2024-03-02T00:46:18;8.50;99.90
9810;DHT22;4944;52.514;13.192;2024-03-02T00:48:52;8.40;99.90
9810;DHT22;4944;52.514;13.192;2024-03-02T00:51:21;8.50;99.90
9810;DHT22;4944;52.514;13.192;2024-03-02T00:53:51;8.50;99.90
9810;DHT22;4944;52.514;13.192;2024-03-02T00:56:19;8.50;99.90
9810;DHT22;4944;52.514;13.192;2024-03-02T00:58:46;8.50;99.90
9810;DHT22;4944;52.514;13.192;2024-03-02T01:01:13;8.50;99.90
9810;DHT22;4944;52.514;13.192;2024-03-02T01:03:41;8.50;99.90
9810;DHT22;4944;52.514;13.192;2024-03-02T01:06:08;8.50;99.90
9810;DHT22;4944;52.514;13.192;2024-03-02T01:08:36;8.50;99.90
9810;DHT22;4944;52.514;13.192;2024-03-02T01:11:05;8.50;99.90
9810;DHT22;4944;52.514;13.192;2024-03-02T01:13:32;8.50;99.90
9810;DHT22;4944;52.514;13.192;2024-03-02T01:15:59;8.50;99.90
9810;DHT22;4944;52.514;13.192;2024-03-02T01:18:27;8.50;99.90
9810;DHT22;4944;52.514;13.192;2024-03-02T01:20:54;8.50;99.90
9810;DHT22;4944;52.514;13.192;2024-03-02T01:23:22;8.50;99.90
9810;DHT22;4944;52.514;13.192;2024-03-02T01:25:49;8.50;99.90
9810;DHT22;4944;52.514;13.192;2024-03-02T01:28:17;8.50;99.90
9810;DHT22;4944;52.514;13.192;2024-03-02T01:30:46;8.50;99.90
9810;DHT22;4944;52.514;13.192;2024-03-02T01:33:13;8.50;99.90
9810;DHT22;4944;52.514;13.192;2024-03-02T01:35:40;8.50;99.90
9810;DHT22;4944;52.514;13.192;2024-03-02T01:38:07;8.50;99.90
9810;DHT22;4944;52.514;13.192;2024-03-02T01:40:34;8.50;99.90
9810;DHT22;4944;52.514;13.192;2024-03-02T01:43:01;8.50;99.90
9810;DHT22;4944;52.514;13.192;2024-03-02T01:45:29;8.50;99.90
9810;DHT22;4944;52.514;13.192;2024-03-02T01:47:56;8.50;99.90
9810;DHT22;4944;52.514;13.192;2024-03-02T01:50:27;8.50;99.90
9810;DHT22;4944;52.514;13.192;2024-03-02T01:52:55;8.50;99.90
9810;DHT22;4944;52.514;13.192;2024-03-02T01:55:22;8.50;99.90
9810;DHT22;4944;52.514;13.192;2024-03-02T01:57:49;8.50;99.90
9810;DHT22;4944;52.514;13.192;2024-03-02T02:00:18;8.50;99.90
9810;DHT22;4944;52.514;13.192;2024-03-02T02:02:46;8.50;99.90
9810;DHT22;4944;52.514;13.192;2024-03-02T02:05:14;8.50;99.90
9810;DHT22;4944;52.514;13.192;2024-03-02T02:07:41;8.50;99.90
9810;DHT22;4944;52.514;13.192;2024-03-02T02:10:09;8.50;99.90
9810;DHT22;4944;52.514;13.192;2024-03-02T02:12:36;8.50;99.90
9810;DHT22;4944;52.514;13.192;2024-03-02T02:15:03;8.50;99.90
9810;DHT22;4944;52.514;13.192;2024-03-02T02:17:31;8.50;99.90
9810;DHT22;4944;52.514;13.192;2024-03-02T02:19:59;8.50;99.90
9810;DHT22;4944;52.514;13.192;2024-03-02T02:22:28;8.50;99.90
9810;DHT22;4944;52.514;13.192;2024-03-02T02:24:55;8.50;99.90
9810;DHT22;4944;52.514;13.192;2024-03-02T02:27:21;8.50;99.90
9810;DHT22;4944;52.514;13.192;2024-03-02T02:29:48;8.50;99.90
9810;DHT22;4944;52.514;13.192;2024-03-02T02:32:15;8.50;99.90
9810;DHT22;4944;52.514;13.192;2024-03-02T02:34:42;8.50;99.90
9810;DHT22;4944;52.514;13.192;2024-03-02T02:37:09;8.50;99.90
9810;DHT22;4944;52.514;13.192;2024-03-02T02:39:37;8.50;99.90
9810;DHT22;4944;52.514;13.192;2024-03-02T02:42:05;8.50;99.90
9810;DHT22;4944;52.514;13.192;2024-03-02T02:44:32;8.50;99.90
9810;DHT22;4944;52.514;13.192;2024-03-02T02:46:59;8.50;99.90
9810;DHT22;4944;52.514;13.192;2024-03-02T02:49:26;8.50;99.90
9810;DHT22;4944;52.514;13.192;2024-03-02T02:51:53;8.50;99.90
9810;DHT22;4944;52.514;13.192;2024-03-02T02:54:20;8.50;99.90
9810;DHT22;4944;52.514;13.192;2024-03-02T02:56:48;8.50;99.90
9810;DHT22;4944;52.514;13.192;2024-03-02T02:59:15;8.50;99.90
9810;DHT22;4944;52.514;13.192;2024-03-02T03:01:42;8.50;99.90
9810;DHT22;4944;52.514;13.192;2024-03-02T03:04:09;8.50;99.90
9810;DHT22;4944;52.514;13.192;2024-03-02T03:06:36;8.50;99.90
9810;DHT22;4944;52.514;13.192;2024-03-02T03:09:03;8.50;99.90
9810;DHT22;4944;52.514;13.192;2024-03-02T03:11:30;8.50;99.90
9810;DHT22;4944;52.514;13.192;2024-03-02T03:13:58;8.60;99.90
9810;DHT22;4944;52.514;13.192;2024-03-02T03:16:27;8.60;99.90
9810;DHT22;4944;52.514;13.192;2024-03-02T03:18:53;8.60;99.90
9810;DHT22;4944;52.514;13.192;2024-03-02T03:21:20;8.60;99.90
9810;DHT22;4944;52.514;13.192;2024-03-02T03:23:47;8.70;99.90
9810;DHT22;4944;52.514;13.192;2024-03-02T03:26:14;8.70;99.90
9810;DHT22;4944;52.514;13.192;2024-03-02T03:28:41;8.70;99.90
9810;DHT22;4944;52.514;13.192;2024-03-02T03:31:09;8.80;99.90
9810;DHT22;4944;52.514;13.192;2024-03-02T03:33:36;8.80;99.90
9810;DHT22;4944;52.514;13.192;2024-03-02T03:36:03;8.80;99.90
9810;DHT22;4944;52.514;13.192;2024-03-02T03:38:30;8.80;99.90
9810;DHT22;4944;52.514;13.192;2024-03-02T03:40:57;8.80;99.90
9810;DHT22;4944;52.514;13.192;2024-03-02T03:43:24;8.80;99.90
9810;DHT22;4944;52.514;13.192;2024-03-02T03:45:51;8.80;99.90
9810;DHT22;4944;52.514;13.192;2024-03-02T03:48:20;8.90;99.90
9810;DHT22;4944;52.514;13.192;2024-03-02T03:50:47;8.90;99.90
9810;DHT22;4944;52.514;13.192;2024-03-02T03:53:13;8.90;99.90
9810;DHT22;4944;52.514;13.192;2024-03-02T03:55:41;8.90;99.90
9810;DHT22;4944;52.514;13.192;2024-03-02T03:58:08;8.90;99.90
9810;DHT22;4944;52.514;13.192;2024-03-02T04:00:35;8.90;99.90
9810;DHT22;4944;52.514;13.192;2024-03-02T04:03:01;8.90;99.90
9810;DHT22;4944;52.514;13.192;2024-03-02T04:05:30;8.90;99.90
9810;DHT22;4944;52.514;13.192;2024-03-02T04:07:57;8.90;99.90
9810;DHT22;4944;52.514;13.192;2024-03-02T04:10:23;8.90;99.90
9810;DHT22;4944;52.514;13.192;2024-03-02T04:12:51;8.90;99.90
9810;DHT22;4944;52.514;13.192;2024-03-02T04:15:18;8.90;99.90
9810;DHT22;4944;52.514;13.192;2024-03-02T04:17:45;8.90;99.90
9810;DHT22;4944;52.514;13.192;2024-03-02T04:20:12;8.90;99.90
9810;DHT22;4944;52.514;13.192;2024-03-02T04:22:40;8.90;99.90
9810;DHT22;4944;52.514;13.192;2024-03-02T04:25:08;8.90;99.90
9810;DHT22;4944;52.514;13.192;2024-03-02T04:27:35;8.90;99.90
9810;DHT22;4944;52.514;13.192;2024-03-02T04:30:03;8.90;99.90
9810;DHT22;4944;52.514;13.192;2024-03-02T04:32:30;8.90;99.90
9810;DHT22;4944;52.514;13.192;2024-03-02T04:34:58;8.90;99.90
9810;DHT22;4944;52.514;13.192;2024-03-02T04:37:24;8.90;99.90
9810;DHT22;4944;52.514;13.192;2024-03-02T04:39:53;8.90;99.90
9810;DHT22;4944;52.514;13.192;2024-03-02T04:42:20;8.90;99.90
9810;DHT22;4944;52.514;13.192;2024-03-02T04:44:48;8.90;99.90
9810;DHT22;4944;52.514;13.192;2024-03-02T04:47:14;8.90;99.90
9810;DHT22;4944;52.514;13.192;2024-03-02T04:49:41;9.00;99.90
9810;DHT22;4944;52.514;13.192;2024-03-02T04:52:08;8.90;99.90
9810;DHT22;4944;52.514;13.192;2024-03-02T04:54:35;8.90;99.90
9810;DHT22;4944;52.514;13.192;2024-03-02T04:57:24;8.90;99.90
9810;DHT22;4944;52.514;13.192;2024-03-02T04:59:51;8.90;99.90
9810;DHT22;4944;52.514;13.192;2024-03-02T05:02:18;8.90;99.90
9810;DHT22;4944;52.514;13.192;2024-03-02T05:04:45;8.90;99.90
9810;DHT22;4944;52.514;13.192;2024-03-02T05:07:13;8.90;99.90
9810;DHT22;4944;52.514;13.192;2024-03-02T05:09:40;8.90;99.90
9810;DHT22;4944;52.514;13.192;2024-03-02T05:12:07;8.90;99.90
9810;DHT22;4944;52.514;13.192;2024-03-02T05:14:56;8.80;99.90
9810;DHT22;4944;52.514;13.192;2024-03-02T05:17:23;8.80;99.90
9810;DHT22;4944;52.514;13.192;2024-03-02T05:19:50;8.90;99.90
9810;DHT22;4944;52.514;13.192;2024-03-02T05:22:16;8.80;99.90
9810;DHT22;4944;52.514;13.192;2024-03-02T05:24:43;8.80;99.90
9810;DHT22;4944;52.514;13.192;2024-03-02T05:27:10;8.80;99.90
9810;DHT22;4944;52.514;13.192;2024-03-02T05:29:37;8.80;99.90
9810;DHT22;4944;52.514;13.192;2024-03-02T05:32:06;8.80;99.90
9810;DHT22;4944;52.514;13.192;2024-03-02T05:34:32;8.80;99.90
9810;DHT22;4944;52.514;13.192;2024-03-02T05:37:01;8.70;99.90
9810;DHT22;4944;52.514;13.192;2024-03-02T05:39:27;8.80;99.90
9810;DHT22;4944;52.514;13.192;2024-03-02T05:41:54;8.70;99.90
9810;DHT22;4944;52.514;13.192;2024-03-02T05:44:21;8.70;99.90
9810;DHT22;4944;52.514;13.192;2024-03-02T05:46:48;8.70;99.90
9810;DHT22;4944;52.514;13.192;2024-03-02T05:49:16;8.70;99.90
9810;DHT22;4944;52.514;13.192;2024-03-02T05:51:43;8.70;99.90
9810;DHT22;4944;52.514;13.192;2024-03-02T05:54:10;8.70;99.90
9810;DHT22;4944;52.514;13.192;2024-03-02T05:56:37;8.70;99.90
9810;DHT22;4944;52.514;13.192;2024-03-02T05:59:04;8.70;99.90
9810;DHT22;4944;52.514;13.192;2024-03-02T06:01:38;8.70;99.90
9810;DHT22;4944;52.514;13.192;2024-03-02T06:04:05;8.70;99.90
9810;DHT22;4944;52.514;13.192;2024-03-02T06:06:33;8.70;99.90
9810;DHT22;4944;52.514;13.192;2024-03-02T06:09:00;8.70;99.90
9810;DHT22;4944;52.514;13.192;2024-03-02T06:11:28;8.70;99.90
9810;DHT22;4944;52.514;13.192;2024-03-02T06:13:55;8.70;99.90
9810;DHT22;4944;52.514;13.192;2024-03-02T06:16:22;8.70;99.90
9810;DHT22;4944;52.514;13.192;2024-03-02T06:18:48;8.70;99.90
9810;DHT22;4944;52.514;13.192;2024-03-02T06:21:15;8.60;99.90
9810;DHT22;4944;52.514;13.192;2024-03-02T06:23:45;8.70;99.90
9810;DHT22;4944;52.514;13.192;2024-03-02T06:26:12;8.70;99.90
9810;DHT22;4944;52.514;13.192;2024-03-02T06:28:39;8.70;99.90
9810;DHT22;4944;52.514;13.192;2024-03-02T06:31:06;8.70;99.90
9810;DHT22;4944;52.514;13.192;2024-03-02T06:33:33;8.70;99.90
9810;DHT22;4944;52.514;13.192;2024-03-02T06:35:59;8.70;99.90
9810;DHT22;4944;52.514;13.192;2024-03-02T06:38:26;8.70;99.90
9810;DHT22;4944;52.514;13.192;2024-03-02T06:40:54;8.70;99.90
9810;DHT22;4944;52.514;13.192;2024-03-02T06:43:21;8.80;99.90
9810;DHT22;4944;52.514;13.192;2024-03-02T06:45:48;8.80;99.90
9810;DHT22;4944;52.514;13.192;2024-03-02T06:48:15;8.80;99.90
9810;DHT22;4944;52.514;13.192;2024-03-02T06:50:45;8.90;99.90
9810;DHT22;4944;52.514;13.192;2024-03-02T06:53:12;8.80;99.90
9810;DHT22;4944;52.514;13.192;2024-03-02T06:55:39;8.90;99.90
9810;DHT22;4944;52.514;13.192;2024-03-02T06:58:07;8.90;99.90
9810;DHT22;4944;52.514;13.192;2024-03-02T07:00:34;8.80;99.90
9810;DHT22;4944;52.514;13.192;2024-03-02T07:03:01;8.80;99.90
9810;DHT22;4944;52.514;13.192;2024-03-02T07:05:28;8.90;99.90
9810;DHT22;4944;52.514;13.192;2024-03-02T07:07:54;8.90;99.90
9810;DHT22;4944;52.514;13.192;2024-03-02T07:10:24;8.80;99.90
9810;DHT22;4944;52.514;13.192;2024-03-02T07:12:50;8.80;99.90
9810;DHT22;4944;52.514;13.192;2024-03-02T07:15:19;8.90;99.90
9810;DHT22;4944;52.514;13.192;2024-03-02T07:18:02;8.90;99.90
9810;DHT22;4944;52.514;13.192;2024-03-02T07:20:29;8.90;99.90
9810;DHT22;4944;52.514;13.192;2024-03-02T07:22:56;8.90;99.90
9810;DHT22;4944;52.514;13.192;2024-03-02T07:25:23;8.90;99.90
9810;DHT22;4944;52.514;13.192;2024-03-02T07:27:50;8.90;99.90
9810;DHT22;4944;52.514;13.192;2024-03-02T07:30:19;8.90;99.90
9810;DHT22;4944;52.514;13.192;2024-03-02T07:32:49;9.00;99.90
9810;DHT22;4944;52.514;13.192;2024-03-02T07:35:16;8.90;99.90
9810;DHT22;4944;52.514;13.192;2024-03-02T07:37:44;8.90;99.90
9810;DHT22;4944;52.514;13.192;2024-03-02T07:40:11;8.90;99.90
9810;DHT22;4944;52.514;13.192;2024-03-02T07:42:38;8.90;99.90
9810;DHT22;4944;52.514;13.192;2024-03-02T07:45:06;8.90;99.90
9810;DHT22;4944;52.514;13.192;2024-03-02T07:47:35;9.00;99.90
9810;DHT22;4944;52.514;13.192;2024-03-02T07:50:05;9.00;99.90
9810;DHT22;4944;52.514;13.192;2024-03-02T07:52:32;9.00;99.90
9810;DHT22;4944;52.514;13.192;2024-03-02T07:54:59;9.00;99.90
9810;DHT22;4944;52.514;13.192;2024-03-02T07:57:26;9.00;99.90
9810;DHT22;4944;52.514;13.192;2024-03-02T07:59:53;9.00;99.90
9810;DHT22;4944;52.514;13.192;2024-03-02T08:02:20;9.00;99.90
9810;DHT22;4944;52.514;13.192;2024-03-02T08:04:49;9.00;99.90
9810;DHT22;4944;52.514;13.192;2024-03-02T08:07:16;9.00;99.90
9810;DHT22;4944;52.514;13.192;2024-03-02T08:09:43;9.00;99.90
9810;DHT22;4944;52.514;13.192;2024-03-02T08:12:10;9.10;99.90
9810;DHT22;4944;52.514;13.192;2024-03-02T08:14:36;9.10;99.90
9810;DHT22;4944;52.514;13.192;2024-03-02T08:17:03;9.10;99.90
9810;DHT22;4944;52.514;13.192;2024-03-02T08:19:35;9.10;99.90
9810;DHT22;4944;52.514;13.192;2024-03-02T08:22:03;9.10;99.90
9810;DHT22;4944;52.514;13.192;2024-03-02T08:24:30;9.20;99.90
9810;DHT22;4944;52.514;13.192;2024-03-02T08:26:58;9.10;99.90
9810;DHT22;4944;52.514;13.192;2024-03-02T08:29:28;9.10;99.90
9810;DHT22;4944;52.514;13.192;2024-03-02T08:31:55;9.10;99.90
9810;DHT22;4944;52.514;13.192;2024-03-02T08:34:22;9.20;99.90
9810;DHT22;4944;52.514;13.192;2024-03-02T08:36:48;9.20;99.90
9810;DHT22;4944;52.514;13.192;2024-03-02T08:39:17;9.20;99.90
9810;DHT22;4944;52.514;13.192;2024-03-02T08:41:45;9.20;99.90
9810;DHT22;4944;52.514;13.192;2024-03-02T08:44:13;9.20;99.90
9810;DHT22;4944;52.514;13.192;2024-03-02T08:46:40;9.20;99.90
9810;DHT22;4944;52.514;13.192;2024-03-02T08:49:07;9.20;99.90
9810;DHT22;4944;52.514;13.192;2024-03-02T08:51:34;9.30;99.90
9810;DHT22;4944;52.514;13.192;2024-03-02T08:54:01;9.30;99.90
9810;DHT22;4944;52.514;13.192;2024-03-02T08:56:31;9.30;99.90
9810;DHT22;4944;52.514;13.192;2024-03-02T08:58:58;9.30;99.90
9810;DHT22;4944;52.514;13.192;2024-03-02T09:01:25;9.30;99.90
9810;DHT22;4944;52.514;13.192;2024-03-02T09:03:52;9.30;99.90
9810;DHT22;4944;52.514;13.192;2024-03-02T09:06:19;9.30;99.90
9810;DHT22;4944;52.514;13.192;2024-03-02T09:08:46;9.30;99.90
9810;DHT22;4944;52.514;13.192;2024-03-02T09:11:15;9.30;99.90
9810;DHT22;4944;52.514;13.192;2024-03-02T09:13:43;9.40;99.90
9810;DHT22;4944;52.514;13.192;2024-03-02T09:16:10;9.40;99.90
9810;DHT22;4944;52.514;13.192;2024-03-02T09:18:37;9.40;99.90
9810;DHT22;4944;52.514;13.192;2024-03-02T09:21:04;9.40;99.90
9810;DHT22;4944;52.514;13.192;2024-03-02T09:23:32;9.40;99.90
9810;DHT22;4944;52.514;13.192;2024-03-02T09:25:59;9.40;99.90
9810;DHT22;4944;52.514;13.192;2024-03-02T09:28:26;9.50;99.90
9810;DHT22;4944;52.514;13.192;2024-03-02T09:30:54;9.50;99.90
9810;DHT22;4944;52.514;13.192;2024-03-02T09:33:21;9.50;99.90
9810;DHT22;4944;52.514;13.192;2024-03-02T09:35:48;9.50;99.90
9810;DHT22;4944;52.514;13.192;2024-03-02T09:38:15;9.50;99.90
9810;DHT22;4944;52.514;13.192;2024-03-02T09:40:42;9.50;99.90
9810;DHT22;4944;52.514;13.192;2024-03-02T09:43:10;9.50;99.90
9810;DHT22;4944;52.514;13.192;2024-03-02T09:45:37;9.60;99.90
9810;DHT22;4944;52.514;13.192;2024-03-02T09:48:06;9.60;99.90
9810;DHT22;4944;52.514;13.192;2024-03-02T09:50:33;9.60;99.90
9810;DHT22;4944;52.514;13.192;2024-03-02T09:53:00;9.60;99.90
9810;DHT22;4944;52.514;13.192;2024-03-02T09:55:28;9.60;99.90
9810;DHT22;4944;52.514;13.192;2024-03-02T09:57:55;9.60;99.90
9810;DHT22;4944;52.514;13.192;2024-03-02T10:00:22;9.70;99.90
9810;DHT22;4944;52.514;13.192;2024-03-02T10:02:48;9.70;99.90
9810;DHT22;4944;52.514;13.192;2024-03-02T10:05:25;9.70;99.90
9810;DHT22;4944;52.514;13.192;2024-03-02T10:07:59;9.70;99.90
9810;DHT22;4944;52.514;13.192;2024-03-02T10:10:35;9.80;99.90
9810;DHT22;4944;52.514;13.192;2024-03-02T10:13:06;9.70;99.90
9810;DHT22;4944;52.514;13.192;2024-03-02T10:15:33;9.70;99.90
9810;DHT22;4944;52.514;13.192;2024-03-02T10:18:00;9.80;99.90
9810;DHT22;4944;52.514;13.192;2024-03-02T10:20:28;9.80;99.90
9810;DHT22;4944;52.514;13.192;2024-03-02T10:22:55;9.80;99.90
9810;DHT22;4944;52.514;13.192;2024-03-02T10:25:30;9.80;99.90
9810;DHT22;4944;52.514;13.192;2024-03-02T10:27:58;9.90;99.90
9810;DHT22;4944;52.514;13.192;2024-03-02T10:30:25;10.00;99.90
9810;DHT22;4944;52.514;13.192;2024-03-02T10:32:53;10.10;99.90
9810;DHT22;4944;52.514;13.192;2024-03-02T10:35:21;10.10;99.90
9810;DHT22;4944;52.514;13.192;2024-03-02T10:37:50;10.30;99.90
9810;DHT22;4944;52.514;13.192;2024-03-02T10:40:18;10.50;99.90
9810;DHT22;4944;52.514;13.192;2024-03-02T10:42:45;10.70;99.90
9810;DHT22;4944;52.514;13.192;2024-03-02T10:45:15;10.80;99.90
9810;DHT22;4944;52.514;13.192;2024-03-02T10:47:42;10.90;99.90
9810;DHT22;4944;52.514;13.192;2024-03-02T10:50:10;11.00;99.90
9810;DHT22;4944;52.514;13.192;2024-03-02T10:52:37;11.10;99.90
9810;DHT22;4944;52.514;13.192;2024-03-02T10:55:07;11.20;99.90
9810;DHT22;4944;52.514;13.192;2024-03-02T10:57:41;11.20;99.90
9810;DHT22;4944;52.514;13.192;2024-03-02T11:00:12;11.20;99.90
9810;DHT22;4944;52.514;13.192;2024-03-02T11:02:50;11.20;99.90
9810;DHT22;4944;52.514;13.192;2024-03-02T11:05:23;11.20;99.90
9810;DHT22;4944;52.514;13.192;2024-03-02T11:07:54;11.20;99.90
9810;DHT22;4944;52.514;13.192;2024-03-02T11:10:25;11.10;99.90
9810;DHT22;4944;52.514;13.192;2024-03-02T11:12:56;11.10;99.90
9810;DHT22;4944;52.514;13.192;2024-03-02T11:15:25;11.10;99.90
9810;DHT22;4944;52.514;13.192;2024-03-02T11:17:54;11.10;99.90
9810;DHT22;4944;52.514;13.192;2024-03-02T11:20:21;11.10;99.90
9810;DHT22;4944;52.514;13.192;2024-03-02T11:22:48;11.10;99.90
9810;DHT22;4944;52.514;13.192;2024-03-02T11:25:27;11.10;99.90
9810;DHT22;4944;52.514;13.192;2024-03-02T11:28:00;11.10;99.90
9810;DHT22;4944;52.514;13.192;2024-03-02T11:30:50;11.10;99.90
9810;DHT22;4944;52.514;13.192;2024-03-02T11:33:23;11.10;99.90
9810;DHT22;4944;52.514;13.192;2024-03-02T11:35:53;11.20;99.90
9810;DHT22;4944;52.514;13.192;2024-03-02T11:38:20;11.20;99.90
9810;DHT22;4944;52.514;13.192;2024-03-02T11:40:48;11.20;99.90
9810;DHT22;4944;52.514;13.192;2024-03-02T11:43:18;11.20;99.90
9810;DHT22;4944;52.514;13.192;2024-03-02T11:45:45;11.20;99.90
9810;DHT22;4944;52.514;13.192;2024-03-02T11:48:14;11.20;99.90
9810;DHT22;4944;52.514;13.192;2024-03-02T11:50:46;11.20;99.90
9810;DHT22;4944;52.514;13.192;2024-03-02T11:53:14;11.20;99.90
9810;DHT22;4944;52.514;13.192;2024-03-02T11:55:41;11.30;99.90
9810;DHT22;4944;52.514;13.192;2024-03-02T11:58:13;11.40;99.90
9810;DHT22;4944;52.514;13.192;2024-03-02T12:00:43;11.50;99.90
9810;DHT22;4944;52.514;13.192;2024-03-02T12:03:13;11.50;99.90
9810;DHT22;4944;52.514;13.192;2024-03-02T12:05:40;11.60;99.90
9810;DHT22;4944;52.514;13.192;2024-03-02T12:08:08;11.70;99.90
9810;DHT22;4944;52.514;13.192;2024-03-02T12:10:35;11.70;99.90
9810;DHT22;4944;52.514;13.192;2024-03-02T12:13:04;11.80;99.90
9810;DHT22;4944;52.514;13.192;2024-03-02T12:15:35;11.90;99.90
9810;DHT22;4944;52.514;13.192;2024-03-02T12:18:03;12.10;99.90
9810;DHT22;4944;52.514;13.192;2024-03-02T12:20:31;12.20;99.90
9810;DHT22;4944;52.514;13.192;2024-03-02T12:22:59;12.40;99.90
9810;DHT22;4944;52.514;13.192;2024-03-02T12:25:26;12.60;99.90
9810;DHT22;4944;52.514;13.192;2024-03-02T12:27:55;12.80;99.90
9810;DHT22;4944;52.514;13.192;2024-03-02T12:30:23;12.90;99.90
9810;DHT22;4944;52.514;13.192;2024-03-02T12:32:51;13.00;99.90
9810;DHT22;4944;52.514;13.192;2024-03-02T12:35:18;13.10;99.90
9810;DHT22;4944;52.514;13.192;2024-03-02T12:37:48;13.40;99.90
9810;DHT22;4944;52.514;13.192;2024-03-02T12:40:17;13.60;99.90
9810;DHT22;4944;52.514;13.192;2024-03-02T12:42:44;13.70;99.90
9810;DHT22;4944;52.514;13.192;2024-03-02T12:45:12;13.90;99.90
9810;DHT22;4944;52.514;13.192;2024-03-02T12:47:40;13.90;99.90
9810;DHT22;4944;52.514;13.192;2024-03-02T12:50:09;14.10;99.90
9810;DHT22;4944;52.514;13.192;2024-03-02T12:52:36;14.10;99.90
9810;DHT22;4944;52.514;13.192;2024-03-02T12:55:05;14.40;99.90
9810;DHT22;4944;52.514;13.192;2024-03-02T12:57:33;14.50;99.90
9810;DHT22;4944;52.514;13.192;2024-03-02T13:00:01;14.60;99.90
9810;DHT22;4944;52.514;13.192;2024-03-02T13:02:34;14.70;99.90
9810;DHT22;4944;52.514;13.192;2024-03-02T13:05:01;14.80;99.90
9810;DHT22;4944;52.514;13.192;2024-03-02T13:07:30;14.90;99.90
9810;DHT22;4944;52.514;13.192;2024-03-02T13:09:59;15.00;99.90
9810;DHT22;4944;52.514;13.192;2024-03-02T13:12:27;15.00;99.90
9810;DHT22;4944;52.514;13.192;2024-03-02T13:14:54;15.00;99.90
9810;DHT22;4944;52.514;13.192;2024-03-02T13:17:21;14.90;99.90
9810;DHT22;4944;52.514;13.192;2024-03-02T13:19:52;15.00;99.90
9810;DHT22;4944;52.514;13.192;2024-03-02T13:22:19;15.00;99.90
9810;DHT22;4944;52.514;13.192;2024-03-02T13:24:48;14.80;99.90
9810;DHT22;4944;52.514;13.192;2024-03-02T13:27:15;14.70;99.90
9810;DHT22;4944;52.514;13.192;2024-03-02T13:29:45;14.70;99.90
9810;DHT22;4944;52.514;13.192;2024-03-02T13:32:12;14.60;99.90
9810;DHT22;4944;52.514;13.192;2024-03-02T13:34:39;14.60;99.90
9810;DHT22;4944;52.514;13.192;2024-03-02T13:37:06;14.50;99.90
9810;DHT22;4944;52.514;13.192;2024-03-02T13:39:33;14.40;99.90
9810;DHT22;4944;52.514;13.192;2024-03-02T13:42:07;14.30;99.90
9810;DHT22;4944;52.514;13.192;2024-03-02T13:44:34;14.20;99.90
9810;DHT22;4944;52.514;13.192;2024-03-02T13:47:01;14.20;99.90
9810;DHT22;4944;52.514;13.192;2024-03-02T13:49:28;14.10;99.90
9810;DHT22;4944;52.514;13.192;2024-03-02T13:51:59;14.00;99.90
9810;DHT22;4944;52.514;13.192;2024-03-02T13:54:28;13.90;99.90
9810;DHT22;4944;52.514;13.192;2024-03-02T13:56:55;13.90;99.90
9810;DHT22;4944;52.514;13.192;2024-03-02T13:59:25;13.90;99.90
9810;DHT22;4944;52.514;13.192;2024-03-02T14:01:52;13.90;99.90
9810;DHT22;4944;52.514;13.192;2024-03-02T14:04:19;13.80;99.90
9810;DHT22;4944;52.514;13.192;2024-03-02T14:06:49;13.80;99.90
9810;DHT22;4944;52.514;13.192;2024-03-02T14:09:16;13.80;99.90
9810;DHT22;4944;52.514;13.192;2024-03-02T14:11:46;13.80;99.90
9810;DHT22;4944;52.514;13.192;2024-03-02T14:14:13;13.80;99.90
9810;DHT22;4944;52.514;13.192;2024-03-02T14:16:41;13.80;99.90
9810;DHT22;4944;52.514;13.192;2024-03-02T14:19:08;13.90;99.90
9810;DHT22;4944;52.514;13.192;2024-03-02T14:21:35;13.90;99.90
9810;DHT22;4944;52.514;13.192;2024-03-02T14:24:03;13.90;99.90
9810;DHT22;4944;52.514;13.192;2024-03-02T14:26:30;13.90;99.90
9810;DHT22;4944;52.514;13.192;2024-03-02T14:28:58;13.90;99.90
9810;DHT22;4944;52.514;13.192;2024-03-02T14:31:26;13.90;99.90
9810;DHT22;4944;52.514;13.192;2024-03-02T14:33:55;14.00;99.90
9810;DHT22;4944;52.514;13.192;2024-03-02T14:36:22;14.00;99.90
9810;DHT22;4944;52.514;13.192;2024-03-02T14:38:49;14.10;99.90
9810;DHT22;4944;52.514;13.192;2024-03-02T14:41:16;14.20;99.90
9810;DHT22;4944;52.514;13.192;2024-03-02T14:43:43;14.30;99.90
9810;DHT22;4944;52.514;13.192;2024-03-02T14:46:11;14.50;99.90
9810;DHT22;4944;52.514;13.192;2024-03-02T14:48:38;14.60;99.90
9810;DHT22;4944;52.514;13.192;2024-03-02T14:51:06;14.60;99.90
9810;DHT22;4944;52.514;13.192;2024-03-02T14:53:33;14.60;99.90
9810;DHT22;4944;52.514;13.192;2024-03-02T14:56:01;14.60;99.90
9810;DHT22;4944;52.514;13.192;2024-03-02T14:58:27;14.60;99.90
9810;DHT22;4944;52.514;13.192;2024-03-02T15:00:54;14.60;99.90
9810;DHT22;4944;52.514;13.192;2024-03-02T15:03:21;14.70;99.90
9810;DHT22;4944;52.514;13.192;2024-03-02T15:05:48;14.70;99.90
9810;DHT22;4944;52.514;13.192;2024-03-02T15:08:18;14.60;99.90
9810;DHT22;4944;52.514;13.192;2024-03-02T15:10:45;14.50;99.90
9810;DHT22;4944;52.514;13.192;2024-03-02T15:13:12;14.50;99.90
9810;DHT22;4944;52.514;13.192;2024-03-02T15:15:39;14.50;99.90
9810;DHT22;4944;52.514;13.192;2024-03-02T15:18:06;14.50;99.90
9810;DHT22;4944;52.514;13.192;2024-03-02T15:20:33;14.60;99.90
9810;DHT22;4944;52.514;13.192;2024-03-02T15:23:00;14.70;99.90
9810;DHT22;4944;52.514;13.192;2024-03-02T15:25:28;14.70;99.90
9810;DHT22;4944;52.514;13.192;2024-03-02T15:27:56;14.80;99.90
9810;DHT22;4944;52.514;13.192;2024-03-02T15:30:23;14.80;99.90
9810;DHT22;4944;52.514;13.192;2024-03-02T15:32:50;14.80;99.90
9810;DHT22;4944;52.514;13.192;2024-03-02T15:35:17;14.80;99.90
9810;DHT22;4944;52.514;13.192;2024-03-02T15:37:44;14.80;99.90
9810;DHT22;4944;52.514;13.192;2024-03-02T15:40:11;14.70;99.90
9810;DHT22;4944;52.514;13.192;2024-03-02T15:42:39;14.70;99.90
9810;DHT22;4944;52.514;13.192;2024-03-02T15:45:07;14.60;99.90
9810;DHT22;4944;52.514;13.192;2024-03-02T15:47:34;14.60;99.90
9810;DHT22;4944;52.514;13.192;2024-03-02T15:50:01;14.50;99.90
9810;DHT22;4944;52.514;13.192;2024-03-02T15:52:29;14.40;99.90
9810;DHT22;4944;52.514;13.192;2024-03-02T15:54:56;14.40;99.90
9810;DHT22;4944;52.514;13.192;2024-03-02T15:57:23;14.30;99.90
9810;DHT22;4944;52.514;13.192;2024-03-02T15:59:52;14.20;99.90
9810;DHT22;4944;52.514;13.192;2024-03-02T16:02:19;14.10;99.90